Monroe, NC

11:15 AM EDT on May 26, 2015 (GMT -0400)
Charlotte-Douglas International | | Change Station
CLOSE
Current Station
Airport
Location: Charlotte,
Elevation: 748 ft
Nearby Weather Stations

Elev 748 ft 35.22 °N, 80.95 °W | Updated 23 minutes ago

Clear
Clear
81 °F
Feels Like 82 °F
N
7
Wind Variable Wind from SW

Today
High -- | Low -- °F
--% Chance of Precip.
Yesterday
High -- | Low -- °F
Precip. -- in
6:12 AM 8:27 PM
First Quarter, 59% visible
Pressure 30.30 in
Visibility 10.0 miles
Clouds Few 2600 ft
Scattered Clouds 25000 ft
Heat Index 82 °F
Dew Point 63 °F
Humidity 54%
Rainfall 0.00 in
Snow Depth Not available.
UV 7 out of 12
Pollen 3.60 out of 12
Air Quality Not available.
Flu Activity No Activity
METAR KCLT 261452Z 22006KT 10SM FEW026 SCT250 27/17 A3030

More Conditions Fewer Conditions

Pressure 30.30 in
Visibility 10.0 miles
Clouds Few 2600 ft
Scattered Clouds 25000 ft
Heat Index 82 °F
Dew Point 63 °F
Humidity 54%
Rainfall 0.00 in
Snow Depth Not available.
UV 7 out of 12
Pollen 3.60 out of 12
Air Quality Not available.
Flu Activity No Activity
METAR KCLT 261452Z 22006KT 10SM FEW026 SCT250 27/17 A3030

More Conditions Fewer Conditions

10-Day Weather Forecast

Almanac

Astronomy

May. 26, 2015 Rise Set
Actual Time
Civil Twilight
Nautical Twilight
Astronomical Twilight
Moon
Length of Visible Light
Length of Day
Tomorrow will be .
, % of the Moon is Illuminated

Today's Extremes

State Highs State Lows

Community

WunderPhotos

Upload Photos

1,824,359 photos uploaded!

WunderBlogs® & News

Nearby

Air Quality

  Air Quality AQ Index Pollutant
Not available.

Snow Depth

Station Depth Elevation

Earthquake Activity

City Distance Mag. Time & Date
Minimum magnitude displayed is 2.5.

Coastal Water Temperatures

Place Temperature

Stations

Nearby Weather Stations

Station Location Temp. Windchill Dew Point Humidity Wind Precip. Elev Updated Type